Main page
METAR-TAF:

METAR-TAF

Airports :

Simón Bolívar International Airport

Caracas, Venezuela

latitude: 10-36N, longitude: 066-59W, elevation: 43 m

Current weather observation

The report was made 1 hour and 5 minutes ago, at 18:02 UTC
Wind 7 kt from the North/Northeast
Temperature 29°C
Humidity 79%
Pressure 1014 hPa

METAR: SVMI 241802Z AUTO 03007KT NCD 29/25 Q1014

Time: 15:07 (19:07 UTC)

Forecast

Forecast valid from 24 at 18 UTC to 25 at 18 UTC
Wind 6 kt from the East
Visibility 10 km or more
Few clouds at a height of 1600 ft
Scattered clouds at a height of 7000 ft
Temporary
from 24 at 18 UTC to 24 at 22 UTC
Wind 6 kt from the East
Visibility: 9000 m
Broken clouds at a height of 1600 ft
drizzle
From 24 at 2300 UTC
Wind 3 kt from the East/Northeast
Visibility 10 km or more
Scattered clouds at a height of 1600 ft

TAF: SVMI 2418/2518 09006KT 9999 FEW016 SCT070 TX30/2519Z TN20/2304Z TEMPO 2418/2422 09006KT 9000 DZ BKN016 FM242300 07003KT 9999 SCT016

Weather observations and forecasts of more than 4000 airports (METAR and TAF reports).

The available stations are represented by yellow and red dots on the map.

Hover mouse over dot to see the name of the station.

Then click to see weather observations and forecasts.

To change the map : click on the green buttons with a black cross to zoom in, on the green button with a dash to zoom out, or on the green arrows for adjacent maps.


METAR-TAF: